createdAt,value
2019-02-08T00:01:26.689Z,11.73
2019-02-08T00:03:56.095Z,12.73
2019-02-08T00:06:25.538Z,13.77
2019-02-08T00:08:55.005Z,12.53
2019-02-08T00:11:24.494Z,13.30
2019-02-08T00:13:53.900Z,14.00
2019-02-08T00:16:23.886Z,12.70
2019-02-08T00:18:53.341Z,13.70
2019-02-08T00:21:23.057Z,13.10
2019-02-08T00:23:52.452Z,12.60
2019-02-08T00:26:21.843Z,12.90
2019-02-08T00:28:51.437Z,12.63
2019-02-08T00:31:20.902Z,13.10
2019-02-08T00:33:50.301Z,12.87
2019-02-08T00:36:19.747Z,11.83
2019-02-08T00:38:49.219Z,12.70
2019-02-08T00:41:18.706Z,11.27
2019-02-08T00:43:48.169Z,13.70
2019-02-08T00:46:17.645Z,11.97
2019-02-08T00:48:47.885Z,12.13
2019-02-08T00:51:17.316Z,12.60
2019-02-08T00:53:46.804Z,11.33
2019-02-08T00:56:16.350Z,12.53
2019-02-08T00:58:45.863Z,11.87
2019-02-08T01:01:15.258Z,13.00
2019-02-08T01:03:45.038Z,12.60
2019-02-08T01:06:15.127Z,12.83
2019-02-08T01:08:44.516Z,12.23
2019-02-08T01:11:13.887Z,12.93
2019-02-08T01:13:43.420Z,12.73
2019-02-08T01:16:12.891Z,12.73
2019-02-08T01:18:42.277Z,13.33
2019-02-08T01:21:11.678Z,13.00
2019-02-08T01:23:41.561Z,11.83
2019-02-08T01:26:11.097Z,12.23
2019-02-08T01:28:40.877Z,13.53
2019-02-08T01:31:10.446Z,11.43
2019-02-08T01:33:39.824Z,12.43
2019-02-08T01:36:09.234Z,12.33
2019-02-08T01:38:38.699Z,12.50
2019-02-08T01:41:08.284Z,12.23
2019-02-08T01:43:37.709Z,11.93
2019-02-08T01:46:07.093Z,11.67
2019-02-08T01:48:36.555Z,11.80
2019-02-08T01:51:06.286Z,11.20
2019-02-08T01:53:35.680Z,13.07
2019-02-08T01:56:05.073Z,11.57
2019-02-08T01:58:34.845Z,11.93
2019-02-08T02:01:05.016Z,11.40
2019-02-08T02:03:34.402Z,11.90
2019-02-08T02:06:04.011Z,12.87
2019-02-08T02:08:33.504Z,12.17
2019-02-08T02:11:02.875Z,12.77
2019-02-08T02:13:32.409Z,11.90
2019-02-08T02:16:01.997Z,11.83
2019-02-08T02:18:31.367Z,13.27
2019-02-08T02:21:00.924Z,12.90
2019-02-08T02:23:30.397Z,12.83
2019-02-08T02:25:59.910Z,12.50
2019-02-08T02:28:29.308Z,12.73
2019-02-08T02:30:58.683Z,13.10
2019-02-08T02:33:28.131Z,13.10
2019-02-08T02:35:57.651Z,13.67
2019-02-08T02:38:27.018Z,13.20
2019-02-08T02:40:56.404Z,14.93
2019-02-08T02:43:26.149Z,14.20
2019-02-08T02:45:55.629Z,14.97
2019-02-08T02:48:25.105Z,13.70
2019-02-08T02:50:54.726Z,14.00
2019-02-08T02:53:24.892Z,14.67
2019-02-08T02:55:54.276Z,14.23
2019-02-08T02:58:23.786Z,14.53
2019-02-08T03:00:53.399Z,14.20
2019-02-08T03:03:22.756Z,14.17
2019-02-08T03:05:52.168Z,13.50
2019-02-08T03:08:21.657Z,13.90
2019-02-08T03:10:52.373Z,14.23
2019-02-08T03:13:21.804Z,13.43
2019-02-08T03:15:51.155Z,13.07
2019-02-08T03:18:20.628Z,12.87
2019-02-08T03:20:50.155Z,12.60
2019-02-08T03:23:19.525Z,13.40
2019-02-08T03:25:48.989Z,13.93
2019-02-08T03:28:18.404Z,13.10
2019-02-08T03:30:58.577Z,14.00
2019-02-08T03:33:28.312Z,13.43
2019-02-08T03:35:57.807Z,12.73
2019-02-08T03:38:27.153Z,13.43
2019-02-08T03:40:56.579Z,13.93
2019-02-08T03:43:26.053Z,14.10
2019-02-08T03:45:55.533Z,13.87
2019-02-08T03:48:24.977Z,12.97
2019-02-08T03:50:54.355Z,13.00
2019-02-08T03:53:23.933Z,14.47
2019-02-08T03:55:58.278Z,13.43
2019-02-08T03:58:24.549Z,12.90
2019-02-08T04:01:02.820Z,13.63
2019-02-08T04:03:32.498Z,14.27
2019-02-08T04:06:01.930Z,14.10
2019-02-08T04:08:31.449Z,13.57
2019-02-08T04:11:01.041Z,13.03
2019-02-08T04:13:30.427Z,13.53
2019-02-08T04:15:59.857Z,13.93
2019-02-08T04:18:29.356Z,12.97
2019-02-08T04:20:58.831Z,13.57
2019-02-08T04:23:28.349Z,13.80
2019-02-08T04:25:57.723Z,13.27
2019-02-08T04:28:27.214Z,14.10
2019-02-08T04:30:56.905Z,14.10
2019-02-08T04:33:26.337Z,13.87
2019-02-08T04:35:55.712Z,14.90
2019-02-08T04:38:25.229Z,15.40
2019-02-08T04:40:54.706Z,13.17
2019-02-08T04:43:24.084Z,15.00
2019-02-08T04:45:53.572Z,15.10
2019-02-08T04:48:22.959Z,15.27
2019-02-08T04:50:52.328Z,12.77
2019-02-08T04:53:21.847Z,14.47
2019-02-08T04:55:51.322Z,13.33
2019-02-08T04:58:22.092Z,12.67
2019-02-08T05:00:51.661Z,14.60
2019-02-08T05:03:21.123Z,15.00
2019-02-08T05:05:50.694Z,14.13
2019-02-08T05:08:20.131Z,12.87
2019-02-08T05:10:49.502Z,14.20
2019-02-08T05:13:18.981Z,14.57
2019-02-08T05:15:48.502Z,13.87
2019-02-08T05:18:17.886Z,13.23
2019-02-08T05:20:47.231Z,13.87
2019-02-08T05:23:16.917Z,13.37
2019-02-08T05:25:46.397Z,13.70
2019-02-08T05:28:15.763Z,13.67
2019-02-08T05:30:45.178Z,14.93
2019-02-08T05:33:14.651Z,13.80
2019-02-08T05:35:44.124Z,13.43
2019-02-08T05:38:13.714Z,14.60
2019-02-08T05:40:43.104Z,13.47
2019-02-08T05:43:12.564Z,13.70
2019-02-08T05:45:42.083Z,13.87
2019-02-08T05:48:11.475Z,14.10
2019-02-08T05:50:40.833Z,14.33
2019-02-08T05:53:10.394Z,13.93
2019-02-08T05:55:39.854Z,14.60
2019-02-08T05:58:10.320Z,14.20
2019-02-08T06:00:51.166Z,14.83
2019-02-08T06:03:20.783Z,14.20
2019-02-08T06:05:50.419Z,13.83
2019-02-08T06:08:20.039Z,13.40
2019-02-08T06:10:49.494Z,16.00
2019-02-08T06:13:18.905Z,15.20
2019-02-08T06:15:48.313Z,15.57
2019-02-08T06:18:17.777Z,16.40
2019-02-08T06:20:47.250Z,16.57
2019-02-08T06:23:16.662Z,17.57
2019-02-08T06:25:46.035Z,15.53
2019-02-08T06:28:15.520Z,16.40
2019-02-08T06:30:45.152Z,16.57
2019-02-08T06:33:14.538Z,17.63
2019-02-08T06:35:43.928Z,17.93
2019-02-08T06:38:13.564Z,15.60
2019-02-08T06:40:45.552Z,14.40
2019-02-08T06:43:14.938Z,13.40
2019-02-08T06:45:44.559Z,13.97
2019-02-08T06:48:14.494Z,13.60
2019-02-08T06:50:43.860Z,13.70
2019-02-08T06:53:13.617Z,13.97
2019-02-08T06:55:43.175Z,14.20
2019-02-08T06:58:25.990Z,14.27
2019-02-08T07:01:23.711Z,14.80
2019-02-08T07:04:11.927Z,15.33
2019-02-08T07:06:53.054Z,15.27
2019-02-08T07:09:44.311Z,15.13
2019-02-08T07:12:22.175Z,16.20
2019-02-08T07:15:26.449Z,15.87
2019-02-08T07:18:09.010Z,15.00
2019-02-08T07:21:09.638Z,15.53
2019-02-08T07:24:10.278Z,15.27
2019-02-08T07:27:07.952Z,14.93
2019-02-08T07:30:11.805Z,15.13
2019-02-08T07:32:58.947Z,13.97
2019-02-08T07:35:45.833Z,16.53
2019-02-08T07:38:43.687Z,13.13
2019-02-08T07:41:31.281Z,13.90
2019-02-08T07:44:26.028Z,15.13
2019-02-08T07:47:18.019Z,14.47
2019-02-08T07:50:07.033Z,14.63
2019-02-08T07:52:57.794Z,13.43
2019-02-08T07:55:44.911Z,15.87
2019-02-08T07:58:45.859Z,15.17
2019-02-08T08:01:38.775Z,13.57
2019-02-08T08:04:29.215Z,17.67
2019-02-08T08:07:15.591Z,16.63
2019-02-08T08:10:06.286Z,14.70
2019-02-08T08:13:00.370Z,13.53
2019-02-08T08:16:04.087Z,12.83
2019-02-08T08:18:48.909Z,15.07
2019-02-08T08:21:36.955Z,16.00
2019-02-08T08:24:38.653Z,14.87
2019-02-08T08:27:32.774Z,15.23
2019-02-08T08:30:19.033Z,13.60
2019-02-08T08:33:06.160Z,15.37
2019-02-08T08:36:05.186Z,16.43
2019-02-08T08:39:11.538Z,14.97
2019-02-08T08:42:20.326Z,14.23
2019-02-08T08:45:26.354Z,13.03
2019-02-08T08:48:22.611Z,13.23
2019-02-08T08:51:28.643Z,14.87
2019-02-08T08:54:54.487Z,14.23
2019-02-08T08:57:40.884Z,14.50
2019-02-08T09:00:42.242Z,13.60
2019-02-08T09:04:07.439Z,13.20
2019-02-08T09:07:19.141Z,13.03
2019-02-08T09:10:34.223Z,13.07
2019-02-08T09:13:56.642Z,11.90
2019-02-08T09:16:54.048Z,12.40
2019-02-08T09:20:06.145Z,12.70
2019-02-08T09:23:18.752Z,13.87
2019-02-08T09:26:23.730Z,13.97
2019-02-08T09:29:18.213Z,15.97
2019-02-08T09:32:35.357Z,18.27
2019-02-08T09:35:59.856Z,13.77
2019-02-08T09:39:19.331Z,13.57
2019-02-08T09:42:50.519Z,13.90
2019-02-08T09:45:56.409Z,12.47
2019-02-08T09:49:01.450Z,13.23
2019-02-08T09:52:08.213Z,13.23
2019-02-08T09:55:06.560Z,13.53
2019-02-08T09:58:18.548Z,13.83
2019-02-08T10:01:13.153Z,16.83
2019-02-08T10:04:25.994Z,15.23
2019-02-08T10:07:17.421Z,15.57
2019-02-08T10:10:22.820Z,13.77
2019-02-08T10:13:22.988Z,15.57
2019-02-08T10:16:29.089Z,12.73
2019-02-08T10:19:35.031Z,13.73
2019-02-08T10:23:06.388Z,15.00
2019-02-08T10:26:06.748Z,12.37
2019-02-08T10:29:11.782Z,14.03
2019-02-08T10:32:25.480Z,13.67
2019-02-08T10:35:22.807Z,13.60
2019-02-08T10:38:35.416Z,13.73
2019-02-08T10:41:50.915Z,14.33
2019-02-08T10:45:04.329Z,13.17
2019-02-08T10:48:09.889Z,14.50
2019-02-08T10:51:07.744Z,19.03
2019-02-08T10:54:13.877Z,22.43
2019-02-08T10:57:31.021Z,18.23
2019-02-08T11:00:55.479Z,14.30
2019-02-08T11:04:05.727Z,17.73
2019-02-08T11:07:16.612Z,14.27
2019-02-08T11:10:21.500Z,15.27
2019-02-08T11:13:28.753Z,13.90
2019-02-08T11:16:38.709Z,14.53
2019-02-08T11:19:24.936Z,15.47
2019-02-08T11:21:54.948Z,15.03
2019-02-08T11:24:27.879Z,16.47
2019-02-08T11:26:59.578Z,15.47
2019-02-08T11:29:29.241Z,16.23
2019-02-08T11:31:58.692Z,15.40
2019-02-08T11:34:28.225Z,17.10
2019-02-08T11:36:57.674Z,17.07
2019-02-08T11:39:27.140Z,16.93
2019-02-08T11:41:56.864Z,21.20
2019-02-08T11:44:26.343Z,17.53
2019-02-08T11:46:55.732Z,20.10
2019-02-08T11:49:25.235Z,20.47
2019-02-08T11:51:54.727Z,17.80
2019-02-08T11:54:24.100Z,17.70
2019-02-08T11:56:53.789Z,18.47
2019-02-08T11:59:23.271Z,17.67
2019-02-08T12:01:53.204Z,18.20
2019-02-08T12:04:22.681Z,17.27
2019-02-08T12:06:52.055Z,23.93
2019-02-08T12:09:21.679Z,17.33
2019-02-08T12:11:51.643Z,18.00
2019-02-08T12:14:21.106Z,17.90
2019-02-08T12:16:50.586Z,19.30
2019-02-08T12:19:20.391Z,26.30
2019-02-08T12:21:49.778Z,25.53
2019-02-08T12:24:19.343Z,25.20
2019-02-08T12:26:48.973Z,19.77
2019-02-08T12:29:18.342Z,20.97
2019-02-08T12:31:47.719Z,20.47
2019-02-08T12:34:17.238Z,19.67
2019-02-08T12:36:46.721Z,19.00
2019-02-08T12:39:16.138Z,20.63
2019-02-08T12:41:45.816Z,20.20
2019-02-08T12:44:15.375Z,22.63
2019-02-08T12:46:44.920Z,21.50
2019-02-08T12:49:14.436Z,22.10
2019-02-08T12:51:43.912Z,20.77
2019-02-08T12:54:13.378Z,21.37
2019-02-08T12:56:45.692Z,22.00
2019-02-08T12:59:14.024Z,20.47
2019-02-08T13:01:43.536Z,20.07
2019-02-08T13:04:13.106Z,20.83
2019-02-08T13:06:42.482Z,22.57
2019-02-08T13:09:12.625Z,21.83
2019-02-08T13:11:42.311Z,25.70
2019-02-08T13:14:14.007Z,21.67
2019-02-08T13:16:43.383Z,21.40
2019-02-08T13:19:12.900Z,21.97
2019-02-08T13:21:42.578Z,19.63
2019-02-08T13:24:12.054Z,22.30
2019-02-08T13:26:41.630Z,24.53
2019-02-08T13:29:11.107Z,24.63
2019-02-08T13:31:40.480Z,25.80
2019-02-08T13:34:10.108Z,22.43
2019-02-08T13:36:39.601Z,20.13
2019-02-08T13:39:10.235Z,19.93
2019-02-08T13:41:39.641Z,20.07
2019-02-08T13:44:09.156Z,22.00
2019-02-08T13:46:38.625Z,22.40
2019-02-08T13:49:08.052Z,23.37
2019-02-08T13:51:37.423Z,21.87
2019-02-08T13:54:10.282Z,23.10
2019-02-08T13:56:39.782Z,22.93
2019-02-08T13:59:09.190Z,21.13
2019-02-08T14:01:38.576Z,23.20
2019-02-08T14:04:08.087Z,24.00
2019-02-08T14:06:37.589Z,21.50
2019-02-08T14:09:09.582Z,22.43
2019-02-08T14:11:39.095Z,19.87
2019-02-08T14:14:08.577Z,19.07
2019-02-08T14:16:39.357Z,18.30
2019-02-08T14:19:09.010Z,19.80
2019-02-08T14:21:38.474Z,17.43
2019-02-08T14:24:07.857Z,18.93
2019-02-08T14:26:37.331Z,18.13
2019-02-08T14:29:06.829Z,18.47
2019-02-08T14:31:36.345Z,17.03
2019-02-08T14:34:05.969Z,16.53
2019-02-08T14:36:35.361Z,18.67
2019-02-08T14:39:08.255Z,16.63
2019-02-08T14:41:37.779Z,15.57
2019-02-08T14:44:07.424Z,19.17
2019-02-08T14:46:36.791Z,18.53
2019-02-08T14:49:06.701Z,21.57
2019-02-08T14:51:37.135Z,17.90
2019-02-08T14:54:06.810Z,17.90
2019-02-08T14:56:36.283Z,18.60
2019-02-08T14:59:06.078Z,20.13
2019-02-08T15:01:35.502Z,21.47
2019-02-08T15:04:07.459Z,17.63
2019-02-08T15:06:36.702Z,16.73
2019-02-08T15:09:10.488Z,18.87
2019-02-08T15:11:39.909Z,20.63
2019-02-08T15:14:09.428Z,19.93
2019-02-08T15:16:38.940Z,22.00
2019-02-08T15:19:08.328Z,21.13
2019-02-08T15:21:37.719Z,39.20
2019-02-08T15:24:07.250Z,21.37
2019-02-08T15:26:36.757Z,22.27
2019-02-08T15:29:06.312Z,26.87
2019-02-08T15:31:36.077Z,26.10
2019-02-08T15:34:07.267Z,24.67
2019-02-08T15:36:36.661Z,25.23
2019-02-08T15:39:11.183Z,24.07
2019-02-08T15:41:40.753Z,24.13
2019-02-08T15:44:10.160Z,24.87
2019-02-08T15:46:39.555Z,24.60
2019-02-08T15:49:09.015Z,25.47
2019-02-08T15:51:38.579Z,29.93
2019-02-08T15:54:08.003Z,26.37
2019-02-08T15:56:37.924Z,25.47
2019-02-08T15:59:07.579Z,25.73
2019-02-08T16:01:37.190Z,26.73
2019-02-08T16:04:06.656Z,28.00
2019-02-08T16:06:36.051Z,29.03
2019-02-08T16:09:11.493Z,30.87
2019-02-08T16:11:40.964Z,28.73
2019-02-08T16:14:10.646Z,29.77
2019-02-08T16:16:40.158Z,31.37
2019-02-08T16:19:11.379Z,30.67
2019-02-08T16:21:40.757Z,35.87
2019-02-08T16:24:10.386Z,35.23
2019-02-08T16:26:39.840Z,37.63
2019-02-08T16:29:09.319Z,40.47
2019-02-08T16:31:38.865Z,39.57
2019-02-08T16:34:08.445Z,37.57
2019-02-08T16:36:38.058Z,39.47
2019-02-08T16:39:10.529Z,40.70
2019-02-08T16:41:39.973Z,38.03
2019-02-08T16:44:10.145Z,39.60
2019-02-08T16:46:40.472Z,40.57
2019-02-08T16:49:09.933Z,41.40
2019-02-08T16:51:39.338Z,42.37
2019-02-08T16:54:09.132Z,46.53
2019-02-08T16:56:38.607Z,46.50
2019-02-08T16:59:08.288Z,49.47
2019-02-08T17:01:37.738Z,49.43
2019-02-08T17:04:07.323Z,48.93
2019-02-08T17:06:36.807Z,49.40
2019-02-08T17:09:11.910Z,49.43
2019-02-08T17:11:41.571Z,49.03
2019-02-08T17:14:11.168Z,47.13
2019-02-08T17:16:40.829Z,44.50
2019-02-08T17:19:10.221Z,46.47
2019-02-08T17:21:39.710Z,47.60
2019-02-08T17:24:09.237Z,45.33
2019-02-08T17:26:38.699Z,45.17
2019-02-08T17:29:08.101Z,46.97
2019-02-08T17:31:37.754Z,50.33
2019-02-08T17:34:07.146Z,44.90
2019-02-08T17:36:36.546Z,44.20
2019-02-08T17:39:07.893Z,45.13
2019-02-08T17:41:37.385Z,43.97
2019-02-08T17:44:07.040Z,45.57
2019-02-08T17:46:36.523Z,50.90
2019-02-08T17:49:05.994Z,42.07
2019-02-08T17:51:36.911Z,38.20
2019-02-08T17:54:06.494Z,38.90
2019-02-08T17:56:35.910Z,37.67
2019-02-08T17:59:05.420Z,40.30
2019-02-08T18:01:34.897Z,41.17
2019-02-08T18:04:04.274Z,42.43
2019-02-08T18:06:33.696Z,41.63
2019-02-08T18:09:03.226Z,43.63
2019-02-08T18:11:32.607Z,47.43
2019-02-08T18:14:02.194Z,48.53
2019-02-08T18:16:31.697Z,43.23
2019-02-08T18:19:01.118Z,46.57
2019-02-08T18:21:30.500Z,42.87
2019-02-08T18:24:00.139Z,42.33
2019-02-08T18:26:29.571Z,41.70
2019-02-08T18:28:58.949Z,43.73
2019-02-08T18:31:28.375Z,39.90
2019-02-08T18:33:57.839Z,40.37
2019-02-08T18:36:27.306Z,40.43
2019-02-08T18:38:57.375Z,38.67
2019-02-08T18:41:26.913Z,39.57
2019-02-08T18:43:56.387Z,39.37
2019-02-08T18:46:25.900Z,39.43
2019-02-08T18:48:55.287Z,39.43
2019-02-08T18:51:24.778Z,44.77
2019-02-08T18:53:54.498Z,44.87
2019-02-08T18:56:23.959Z,44.83
2019-02-08T18:58:53.465Z,49.70
2019-02-08T19:01:23.133Z,44.03
2019-02-08T19:03:52.493Z,37.97
2019-02-08T19:06:21.893Z,42.70
2019-02-08T19:08:51.569Z,38.60
2019-02-08T19:11:21.047Z,39.97
2019-02-08T19:13:50.508Z,43.47
2019-02-08T19:16:19.976Z,44.30
2019-02-08T19:18:49.450Z,42.93
2019-02-08T19:21:19.003Z,44.20
2019-02-08T19:23:48.638Z,42.70
2019-02-08T19:26:18.375Z,45.17
2019-02-08T19:28:47.922Z,45.63
2019-02-08T19:31:17.344Z,43.93
2019-02-08T19:33:46.834Z,46.07
2019-02-08T19:36:16.315Z,43.23
2019-02-08T19:38:45.744Z,43.40
2019-02-08T19:41:15.114Z,42.73
2019-02-08T19:43:44.604Z,40.80
2019-02-08T19:46:14.147Z,42.57
2019-02-08T19:48:43.502Z,43.43
2019-02-08T19:51:12.897Z,44.17
2019-02-08T19:53:42.631Z,45.73
2019-02-08T19:56:12.080Z,40.43
2019-02-08T19:58:41.482Z,39.60
2019-02-08T20:01:10.996Z,39.03
2019-02-08T20:03:40.478Z,38.60
2019-02-08T20:06:10.163Z,38.60
2019-02-08T20:08:39.569Z,42.90
2019-02-08T20:11:09.101Z,44.37
2019-02-08T20:13:38.470Z,38.03
2019-02-08T20:16:07.904Z,42.33
2019-02-08T20:18:37.386Z,40.27
2019-02-08T20:21:07.144Z,36.83
2019-02-08T20:23:36.572Z,37.17
2019-02-08T20:26:06.116Z,37.97
2019-02-08T20:28:42.115Z,36.50
2019-02-08T20:31:08.045Z,35.57
2019-02-08T20:33:37.411Z,36.33
2019-02-08T20:36:07.017Z,35.43
2019-02-08T20:38:36.714Z,37.23
2019-02-08T20:41:06.291Z,37.97
2019-02-08T20:43:35.676Z,40.20
2019-02-08T20:46:05.111Z,40.73
2019-02-08T20:48:34.589Z,44.07
2019-02-08T20:51:04.093Z,42.80
2019-02-08T20:53:33.596Z,39.73
2019-02-08T20:56:03.173Z,40.87
2019-02-08T20:58:33.227Z,38.90
2019-02-08T21:01:03.026Z,39.47
2019-02-08T21:03:32.602Z,31.73
2019-02-08T21:06:02.150Z,31.10
2019-02-08T21:08:31.889Z,29.93
2019-02-08T21:11:01.267Z,29.60
2019-02-08T21:13:30.856Z,27.63
2019-02-08T21:16:00.375Z,26.10
2019-02-08T21:18:29.741Z,26.37
2019-02-08T21:20:59.125Z,23.67
2019-02-08T21:23:28.799Z,23.23
2019-02-08T21:25:58.250Z,23.30
2019-02-08T21:28:27.642Z,21.37
2019-02-08T21:30:58.135Z,21.60
2019-02-08T21:33:27.663Z,19.83
2019-02-08T21:35:57.062Z,20.33
2019-02-08T21:38:26.594Z,18.40
2019-02-08T21:40:56.074Z,18.23
2019-02-08T21:43:25.438Z,16.97
2019-02-08T21:45:55.070Z,18.33
2019-02-08T21:48:24.655Z,17.97
2019-02-08T21:50:54.292Z,19.23
2019-02-08T21:53:23.737Z,20.33
2019-02-08T21:55:53.226Z,17.87
2019-02-08T21:58:22.715Z,18.10
2019-02-08T22:00:52.234Z,19.13
2019-02-08T22:03:21.627Z,21.90
2019-02-08T22:05:57.888Z,16.73
2019-02-08T22:08:27.365Z,16.10
2019-02-08T22:10:56.821Z,14.07
2019-02-08T22:13:26.393Z,13.93
2019-02-08T22:15:55.769Z,14.43
2019-02-08T22:18:25.382Z,15.03
2019-02-08T22:20:54.904Z,15.83
2019-02-08T22:23:24.284Z,14.90
2019-02-08T22:25:53.667Z,14.80
2019-02-08T22:28:23.310Z,17.50
2019-02-08T22:30:52.789Z,15.57
2019-02-08T22:33:22.583Z,13.80
2019-02-08T22:35:52.177Z,13.60
2019-02-08T22:38:21.766Z,14.03
2019-02-08T22:40:51.233Z,13.57
2019-02-08T22:43:20.814Z,13.73
2019-02-08T22:45:50.241Z,13.83
2019-02-08T22:48:19.700Z,13.03
2019-02-08T22:50:49.290Z,13.67
2019-02-08T22:53:18.795Z,13.10
2019-02-08T22:55:48.307Z,13.63
2019-02-08T22:58:17.775Z,13.57
2019-02-08T23:01:15.307Z,14.20
2019-02-08T23:03:44.827Z,13.37
2019-02-08T23:06:14.391Z,13.57
2019-02-08T23:08:43.793Z,13.67
2019-02-08T23:11:13.307Z,13.33
2019-02-08T23:13:42.797Z,12.90
2019-02-08T23:16:12.861Z,14.63
2019-02-08T23:18:42.374Z,14.70
2019-02-08T23:21:12.207Z,12.73
2019-02-08T23:23:41.972Z,13.13
2019-02-08T23:26:11.476Z,13.67
2019-02-08T23:28:40.877Z,12.40
2019-02-08T23:31:10.464Z,15.00
2019-02-08T23:33:39.897Z,15.27
2019-02-08T23:36:09.393Z,15.27
2019-02-08T23:38:38.871Z,13.40
2019-02-08T23:41:08.385Z,13.47
2019-02-08T23:43:37.774Z,13.73
2019-02-08T23:46:07.265Z,13.93
2019-02-08T23:48:36.810Z,14.93
2019-02-08T23:51:06.419Z,13.00
2019-02-08T23:53:35.792Z,13.63
2019-02-08T23:56:05.621Z,14.17
2019-02-08T23:58:35.105Z,12.83
